Time;durP1;ratioP1;P1;durP2;ratioP2;P2;SDS_P1;SDS_P2;PMS_P1;PMS_P2;Temp;Humidity;BMP_temperature;BMP_pressure;BME280_temperature;BME280_humidity;BME280_pressure;Samples;Min_cycle;Max_cycle;Signal;HPM_P1;HPM_P2
2022/05/06 00:18:37;;;;;;;4.18;2.92;;;;;;;;;;5120269;27;20438;-44
2022/05/06 00:21:03;;;;;;;6.93;4.95;;;;;;;;;;5124521;27;20510;-47
2022/05/06 00:23:28;;;;;;;8.55;4.05;;;;;;;;;;5131486;27;20054;-43
2022/05/06 00:25:53;;;;;;;15.80;5.05;;;;;;;;;;5125550;27;20411;-44
2022/05/06 00:28:19;;;;;;;12.15;6.53;;;;;;;;;;5125761;27;20836;-44
2022/05/06 00:30:44;;;;;;;14.30;5.03;;;;;;;;;;5124709;27;20495;-40
2022/05/06 00:33:09;;;;;;;7.90;4.05;;;;;;;;;;5127277;27;20038;-41
2022/05/06 00:35:37;;;;;;;4.15;3.70;;;;;;;;;;5126691;27;20188;-43
2022/05/06 00:38:03;;;;;;;5.50;3.88;;;;;;;;;;5125126;27;20059;-45
2022/05/06 00:40:28;;;;;;;5.47;3.30;;;;;;;;;;5126766;27;20061;-40
2022/05/06 00:42:55;;;;;;;3.45;2.70;;;;;;;;;;5124070;27;20046;-42
2022/05/06 00:45:21;;;;;;;5.22;2.72;;;;;;;;;;5127721;27;20166;-45
2022/05/06 00:47:46;;;;;;;6.43;3.53;;;;;;;;;;5120958;27;20196;-40
2022/05/06 00:50:12;;;;;;;6.35;5.32;;;;;;;;;;5128830;27;20054;-40
2022/05/06 00:52:37;;;;;;;17.35;5.03;;;;;;;;;;5125722;27;20507;-41
2022/05/06 00:55:03;;;;;;;5.97;4.68;;;;;;;;;;5126028;27;20047;-39
2022/05/06 00:57:30;;;;;;;4.75;4.00;;;;;;;;;;5128500;27;20058;-39
2022/05/06 01:02:39;;;;;;;5.22;2.92;;;;;;;;;;5129154;27;20057;-44
2022/05/06 01:05:05;;;;;;;8.52;4.63;;;;;;;;;;5122459;27;20059;-43
2022/05/06 01:07:30;;;;;;;7.05;3.85;;;;;;;;;;5123152;27;20605;-43
2022/05/06 01:09:56;;;;;;;13.73;3.63;;;;;;;;;;5129909;27;20605;-45
2022/05/06 01:12:21;;;;;;;3.17;2.72;;;;;;;;;;5127927;27;20418;-41
2022/05/06 01:14:46;;;;;;;3.28;2.97;;;;;;;;;;5126087;27;20043;-39
2022/05/06 01:17:13;;;;;;;5.18;3.47;;;;;;;;;;5119352;27;20072;-43
2022/05/06 01:19:39;;;;;;;8.32;4.30;;;;;;;;;;5113644;28;20040;-42
2022/05/06 01:22:05;;;;;;;6.07;3.70;;;;;;;;;;5117273;28;20468;-42
2022/05/06 01:24:31;;;;;;;4.82;2.88;;;;;;;;;;5110067;28;20159;-40
2022/05/06 01:26:59;;;;;;;6.63;2.90;;;;;;;;;;5079145;28;20040;-43
2022/05/06 01:29:26;;;;;;;5.90;3.47;;;;;;;;;;5115798;28;20047;-46
2022/05/06 01:31:52;;;;;;;8.35;4.45;;;;;;;;;;5108322;28;20769;-44
2022/05/06 01:34:18;;;;;;;4.63;3.55;;;;;;;;;;5112967;28;20044;-43
2022/05/06 01:36:46;;;;;;;3.33;2.92;;;;;;;;;;5110043;28;20747;-48
2022/05/06 01:39:13;;;;;;;6.18;3.03;;;;;;;;;;5113166;28;20059;-42
2022/05/06 01:41:40;;;;;;;5.40;4.68;;;;;;;;;;5114313;28;20139;-42
2022/05/06 01:44:07;;;;;;;5.93;3.45;;;;;;;;;;5111232;28;20054;-44
2022/05/06 01:46:33;;;;;;;6.72;2.97;;;;;;;;;;5117207;28;20056;-41
2022/05/06 01:48:59;;;;;;;3.83;2.95;;;;;;;;;;5106786;28;20130;-46
2022/05/06 01:51:26;;;;;;;9.05;4.10;;;;;;;;;;5113387;28;20130;-44
2022/05/06 01:53:52;;;;;;;5.78;3.33;;;;;;;;;;5112943;28;20048;-43
2022/05/06 01:56:18;;;;;;;14.70;5.50;;;;;;;;;;5110768;28;20130;-42
2022/05/06 01:58:44;;;;;;;6.50;4.10;;;;;;;;;;5104431;28;20107;-44
2022/05/06 02:01:11;;;;;;;4.82;3.17;;;;;;;;;;5112823;28;20043;-46
2022/05/06 02:06:20;;;;;;;7.68;5.25;;;;;;;;;;5114293;28;20050;-44
2022/05/06 02:08:45;;;;;;;6.18;3.85;;;;;;;;;;5111651;28;20051;-48
2022/05/06 02:11:11;;;;;;;4.43;4.03;;;;;;;;;;5111985;28;20052;-45
2022/05/06 02:13:37;;;;;;;6.65;5.20;;;;;;;;;;5113012;28;20109;-44
2022/05/06 02:16:03;;;;;;;11.38;5.38;;;;;;;;;;5116467;28;20047;-45
2022/05/06 02:18:28;;;;;;;5.18;4.38;;;;;;;;;;5111180;28;20043;-44
2022/05/06 02:20:57;;;;;;;6.22;4.35;;;;;;;;;;5114186;28;20040;-44
2022/05/06 02:23:22;;;;;;;5.10;4.38;;;;;;;;;;5110286;28;20087;-43
2022/05/06 02:25:48;;;;;;;5.80;4.53;;;;;;;;;;5109597;28;20042;-42
2022/05/06 02:28:14;;;;;;;9.40;4.60;;;;;;;;;;5108765;28;20125;-46
2022/05/06 02:33:24;;;;;;;7.53;4.40;;;;;;;;;;5116341;28;20104;-44
2022/05/06 02:35:50;;;;;;;13.60;9.35;;;;;;;;;;5112609;28;20154;-43
2022/05/06 02:38:15;;;;;;;8.65;4.43;;;;;;;;;;5109968;28;20038;-45
2022/05/06 02:40:40;;;;;;;5.88;4.18;;;;;;;;;;5110493;28;20385;-44
2022/05/06 02:43:06;;;;;;;14.45;6.45;;;;;;;;;;5111528;28;20055;-45
2022/05/06 02:45:32;;;;;;;24.67;11.68;;;;;;;;;;5111669;28;20502;-42
2022/05/06 02:47:57;;;;;;;11.85;5.93;;;;;;;;;;5114947;28;20152;-48
2022/05/06 02:50:23;;;;;;;5.90;4.65;;;;;;;;;;5116845;28;20042;-43
2022/05/06 02:52:49;;;;;;;8.70;6.60;;;;;;;;;;5112376;28;20089;-47
2022/05/06 02:55:14;;;;;;;12.45;5.18;;;;;;;;;;5113957;28;20055;-42
2022/05/06 02:57:40;;;;;;;10.55;6.18;;;;;;;;;;5111210;28;20130;-43
2022/05/06 03:00:06;;;;;;;8.63;7.53;;;;;;;;;;5110961;28;20078;-49
2022/05/06 03:02:31;;;;;;;7.53;6.15;;;;;;;;;;5111661;28;20491;-41
2022/05/06 03:04:57;;;;;;;9.05;4.43;;;;;;;;;;5110081;28;20092;-46
2022/05/06 03:07:22;;;;;;;9.50;5.45;;;;;;;;;;5109837;28;20035;-42
2022/05/06 03:09:47;;;;;;;10.10;5.95;;;;;;;;;;5109385;28;20044;-44
2022/05/06 03:12:13;;;;;;;9.05;5.05;;;;;;;;;;5114027;28;20038;-43
2022/05/06 03:14:38;;;;;;;5.80;4.60;;;;;;;;;;5080938;28;20071;-41
2022/05/06 03:17:04;;;;;;;12.50;5.20;;;;;;;;;;5108938;28;20058;-45
2022/05/06 03:19:29;;;;;;;10.43;6.10;;;;;;;;;;5110212;28;20130;-43
2022/05/06 03:21:54;;;;;;;6.72;4.95;;;;;;;;;;5107926;28;20035;-41
2022/05/06 03:24:20;;;;;;;6.53;5.28;;;;;;;;;;5109028;28;20148;-42
2022/05/06 03:26:45;;;;;;;5.38;4.75;;;;;;;;;;5111606;28;20046;-42
2022/05/06 03:29:11;;;;;;;5.95;4.88;;;;;;;;;;5110229;28;20463;-45
2022/05/06 03:31:36;;;;;;;4.45;3.83;;;;;;;;;;5107046;28;20455;-46
2022/05/06 03:34:05;;;;;;;7.55;4.20;;;;;;;;;;5108603;28;20497;-46
2022/05/06 03:36:30;;;;;;;7.22;4.97;;;;;;;;;;5108533;28;20039;-44
2022/05/06 03:38:56;;;;;;;4.80;3.67;;;;;;;;;;5108960;28;20126;-45
2022/05/06 03:41:21;;;;;;;8.40;4.75;;;;;;;;;;5108615;28;20047;-45
2022/05/06 03:43:47;;;;;;;6.18;5.05;;;;;;;;;;5107643;28;20066;-44
2022/05/06 03:46:12;;;;;;;10.38;3.50;;;;;;;;;;5109343;28;20572;-46
2022/05/06 03:48:37;;;;;;;4.90;4.00;;;;;;;;;;5112403;28;20044;-43
2022/05/06 03:51:22;;;;;;;4.45;3.03;;;;;;;;;;5110027;28;20048;-45
2022/05/06 03:53:48;;;;;;;6.28;3.97;;;;;;;;;;5111535;28;20126;-42
2022/05/06 03:56:13;;;;;;;4.32;3.40;;;;;;;;;;5109676;28;20123;-43
2022/05/06 03:58:38;;;;;;;5.57;3.95;;;;;;;;;;5107853;28;20044;-43
2022/05/06 04:01:04;;;;;;;5.55;4.18;;;;;;;;;;5111396;28;20070;-45
2022/05/06 04:03:31;;;;;;;6.28;3.70;;;;;;;;;;5111534;28;20054;-48
2022/05/06 04:05:57;;;;;;;6.30;4.90;;;;;;;;;;5111158;28;20101;-46
2022/05/06 04:08:22;;;;;;;6.60;4.35;;;;;;;;;;5110177;28;20078;-47
2022/05/06 04:10:47;;;;;;;6.50;4.53;;;;;;;;;;5111899;28;20079;-47
2022/05/06 04:13:13;;;;;;;4.90;3.75;;;;;;;;;;5106410;28;20135;-47
2022/05/06 04:15:38;;;;;;;5.88;4.55;;;;;;;;;;5111548;28;20034;-48
2022/05/06 04:18:04;;;;;;;3.35;2.85;;;;;;;;;;5107192;28;20407;-45
2022/05/06 04:23:33;;;;;;;12.68;3.72;;;;;;;;;;5104558;28;20415;-48
2022/05/06 04:25:59;;;;;;;5.18;2.80;;;;;;;;;;5106293;28;20043;-43
2022/05/06 04:28:26;;;;;;;5.18;3.58;;;;;;;;;;5108234;28;20135;-47
2022/05/06 04:30:52;;;;;;;7.47;5.05;;;;;;;;;;5108762;28;20048;-48
2022/05/06 04:33:18;;;;;;;8.25;4.38;;;;;;;;;;5106177;28;20031;-43
2022/05/06 04:35:43;;;;;;;4.90;3.25;;;;;;;;;;5110024;28;20139;-47
2022/05/06 04:38:09;;;;;;;7.65;3.95;;;;;;;;;;5112653;28;20146;-46
2022/05/06 04:40:34;;;;;;;6.03;3.30;;;;;;;;;;5110329;28;20233;-45
2022/05/06 04:43:06;;;;;;;6.47;4.25;;;;;;;;;;5108559;28;20467;-45
2022/05/06 04:45:31;;;;;;;6.97;4.20;;;;;;;;;;5106816;28;20055;-45
2022/05/06 04:47:57;;;;;;;4.13;2.75;;;;;;;;;;5109346;28;20142;-47
2022/05/06 04:50:22;;;;;;;4.93;3.13;;;;;;;;;;5110924;28;20096;-43
2022/05/06 04:52:49;;;;;;;5.45;4.43;;;;;;;;;;5108996;28;20531;-43
2022/05/06 04:55:15;;;;;;;7.07;4.90;;;;;;;;;;5115262;28;20345;-44
2022/05/06 04:57:40;;;;;;;6.28;4.43;;;;;;;;;;5110545;28;20516;-41
2022/05/06 05:00:05;;;;;;;10.63;4.00;;;;;;;;;;5111660;28;20691;-48
2022/05/06 05:02:32;;;;;;;13.82;5.38;;;;;;;;;;5112191;28;20043;-45
2022/05/06 05:04:58;;;;;;;4.65;3.15;;;;;;;;;;5109092;28;20465;-47
2022/05/06 05:07:24;;;;;;;3.95;3.55;;;;;;;;;;5116192;28;20048;-44
2022/05/06 05:09:49;;;;;;;9.55;4.78;;;;;;;;;;5113544;28;20476;-48
2022/05/06 05:12:14;;;;;;;6.50;5.28;;;;;;;;;;5117495;28;20047;-44
2022/05/06 05:14:41;;;;;;;15.55;5.22;;;;;;;;;;5109050;28;20115;-44
2022/05/06 05:17:07;;;;;;;11.52;4.82;;;;;;;;;;5112195;28;20055;-45
2022/05/06 05:19:32;;;;;;;8.63;5.15;;;;;;;;;;5115946;28;20543;-47
2022/05/06 05:21:57;;;;;;;11.65;5.18;;;;;;;;;;5111020;28;20281;-43
2022/05/06 05:24:23;;;;;;;11.48;5.47;;;;;;;;;;5112653;28;20107;-43
2022/05/06 05:26:48;;;;;;;20.70;5.90;;;;;;;;;;5108038;28;20067;-41
2022/05/06 05:29:13;;;;;;;7.13;4.90;;;;;;;;;;5110471;28;20456;-49
2022/05/06 05:31:39;;;;;;;8.13;5.50;;;;;;;;;;5109916;28;20610;-46
2022/05/06 05:34:04;;;;;;;12.70;5.80;;;;;;;;;;5107870;28;20036;-43
2022/05/06 05:36:29;;;;;;;10.18;7.50;;;;;;;;;;5108685;28;20046;-44
2022/05/06 05:38:55;;;;;;;4.88;4.30;;;;;;;;;;5110398;28;20047;-48
2022/05/06 05:41:20;;;;;;;7.47;5.97;;;;;;;;;;5113080;28;20074;-43
2022/05/06 05:49:13;;;;;;;12.73;5.88;;;;;;;;;;5113204;28;20495;-42
2022/05/06 05:51:38;;;;;;;9.23;6.38;;;;;;;;;;5094845;28;20048;-42
2022/05/06 05:54:04;;;;;;;18.67;7.70;;;;;;;;;;5106830;28;20044;-45
2022/05/06 05:56:30;;;;;;;13.02;6.28;;;;;;;;;;5114232;28;20059;-42
2022/05/06 05:58:55;;;;;;;10.55;6.78;;;;;;;;;;5107119;28;20566;-42
2022/05/06 06:01:21;;;;;;;7.05;6.35;;;;;;;;;;5111426;28;20573;-41
2022/05/06 06:03:46;;;;;;;9.95;6.22;;;;;;;;;;5110211;28;20051;-42
2022/05/06 06:06:11;;;;;;;14.05;6.95;;;;;;;;;;5103785;28;20055;-45
2022/05/06 06:08:37;;;;;;;10.40;6.15;;;;;;;;;;5108779;28;20122;-42
2022/05/06 06:11:03;;;;;;;8.68;7.20;;;;;;;;;;5110044;28;20063;-46
2022/05/06 06:13:30;;;;;;;14.55;9.00;;;;;;;;;;5109320;28;20066;-43
2022/05/06 06:15:55;;;;;;;9.07;6.13;;;;;;;;;;5109994;28;20126;-43
2022/05/06 06:18:26;;;;;;;5.53;4.45;;;;;;;;;;5107940;28;20122;-43
2022/05/06 06:20:51;;;;;;;7.65;6.45;;;;;;;;;;5110110;28;20075;-45
2022/05/06 06:23:17;;;;;;;8.80;7.90;;;;;;;;;;5110908;28;20078;-42
2022/05/06 06:25:42;;;;;;;19.05;9.45;;;;;;;;;;5106563;28;21648;-44
2022/05/06 06:28:07;;;;;;;26.63;6.97;;;;;;;;;;5107757;28;20133;-45
2022/05/06 06:30:32;;;;;;;8.38;6.43;;;;;;;;;;5111894;28;20067;-44
2022/05/06 06:32:58;;;;;;;9.13;6.13;;;;;;;;;;5112154;28;20078;-48
2022/05/06 06:35:23;;;;;;;11.75;8.23;;;;;;;;;;5113169;28;20046;-43
2022/05/06 06:37:49;;;;;;;9.15;7.78;;;;;;;;;;5104203;28;20031;-43
2022/05/06 06:40:14;;;;;;;11.10;7.95;;;;;;;;;;5111625;28;20468;-43
2022/05/06 06:42:41;;;;;;;11.90;10.77;;;;;;;;;;5103787;28;20031;-45
2022/05/06 06:45:07;;;;;;;20.92;14.25;;;;;;;;;;5106304;28;20111;-50
2022/05/06 06:47:32;;;;;;;15.82;10.60;;;;;;;;;;5111097;28;20082;-46
2022/05/06 06:49:58;;;;;;;10.75;9.20;;;;;;;;;;5113674;28;20464;-51
2022/05/06 06:52:23;;;;;;;13.82;8.60;;;;;;;;;;5113911;28;20038;-47
2022/05/06 06:54:48;;;;;;;11.80;7.82;;;;;;;;;;5109684;28;20039;-50
2022/05/06 06:57:14;;;;;;;13.52;8.63;;;;;;;;;;5112536;28;20440;-46
2022/05/06 06:59:39;;;;;;;18.10;9.27;;;;;;;;;;5113100;28;20039;-51
2022/05/06 07:02:04;;;;;;;11.48;6.90;;;;;;;;;;5111590;28;20314;-49
2022/05/06 07:04:30;;;;;;;19.98;10.25;;;;;;;;;;5108831;28;20052;-46
2022/05/06 07:12:23;;;;;;;11.82;8.30;;;;;;;;;;5108301;28;20082;-50
2022/05/06 07:14:48;;;;;;;20.33;9.38;;;;;;;;;;5108762;28;20065;-44
2022/05/06 07:17:14;;;;;;;20.73;17.13;;;;;;;;;;5109964;28;20126;-46
2022/05/06 07:19:39;;;;;;;34.80;13.02;;;;;;;;;;5105551;28;20426;-48
2022/05/06 07:22:04;;;;;;;17.40;10.68;;;;;;;;;;5107913;28;20083;-48
2022/05/06 07:24:30;;;;;;;13.45;11.10;;;;;;;;;;5108582;28;20197;-46
2022/05/06 07:26:56;;;;;;;12.52;8.63;;;;;;;;;;5104850;28;20146;-47
2022/05/06 07:29:22;;;;;;;17.48;10.63;;;;;;;;;;5109790;28;20078;-45
2022/05/06 07:31:47;;;;;;;30.15;8.52;;;;;;;;;;5106859;28;20695;-46
2022/05/06 07:34:15;;;;;;;9.75;7.93;;;;;;;;;;5103237;28;20104;-51
2022/05/06 07:36:42;;;;;;;8.38;5.57;;;;;;;;;;5103278;28;20059;-46
2022/05/06 07:39:08;;;;;;;5.95;2.75;;;;;;;;;;5105963;28;20047;-44
2022/05/06 07:41:33;;;;;;;5.05;4.05;;;;;;;;;;5109393;28;20047;-47
2022/05/06 07:43:59;;;;;;;6.50;3.92;;;;;;;;;;5108666;28;20051;-45
2022/05/06 07:46:25;;;;;;;9.60;5.75;;;;;;;;;;5105877;28;20501;-46
2022/05/06 07:48:50;;;;;;;7.88;3.85;;;;;;;;;;5106024;28;20039;-43
2022/05/06 07:51:15;;;;;;;10.10;4.60;;;;;;;;;;5109296;28;20040;-45
2022/05/06 07:53:41;;;;;;;3.75;2.90;;;;;;;;;;5105524;28;20085;-44
2022/05/06 07:56:06;;;;;;;6.22;4.22;;;;;;;;;;5104723;28;20075;-46
2022/05/06 07:58:32;;;;;;;5.03;4.53;;;;;;;;;;5111999;28;20043;-44
2022/05/06 08:00:57;;;;;;;5.47;3.75;;;;;;;;;;5103288;28;20499;-45
2022/05/06 08:06:07;;;;;;;3.42;2.40;;;;;;;;;;5107515;28;20104;-42
2022/05/06 08:08:32;;;;;;;6.72;3.15;;;;;;;;;;5108415;28;20458;-46
2022/05/06 08:10:58;;;;;;;2.83;2.33;;;;;;;;;;5104674;28;20083;-45
2022/05/06 08:13:23;;;;;;;4.45;2.25;;;;;;;;;;5105952;28;20040;-44
2022/05/06 08:15:50;;;;;;;11.63;2.92;;;;;;;;;;5106659;28;20122;-42
2022/05/06 08:18:15;;;;;;;4.57;2.90;;;;;;;;;;5100293;28;20052;-42
2022/05/06 08:20:41;;;;;;;5.35;3.05;;;;;;;;;;5109947;28;20511;-47
2022/05/06 08:23:07;;;;;;;5.00;3.22;;;;;;;;;;5109997;28;20043;-49
2022/05/06 08:25:32;;;;;;;6.75;3.17;;;;;;;;;;5111400;28;20048;-46
2022/05/06 08:27:58;;;;;;;8.68;3.92;;;;;;;;;;5110161;28;20567;-48
2022/05/06 08:30:24;;;;;;;2.53;1.83;;;;;;;;;;5115356;28;20511;-46
2022/05/06 08:32:50;;;;;;;5.82;2.40;;;;;;;;;;5112274;28;20042;-48
2022/05/06 08:35:15;;;;;;;7.05;2.38;;;;;;;;;;5112505;28;20099;-44
2022/05/06 08:37:45;;;;;;;4.82;3.63;;;;;;;;;;5109873;28;20073;-50
2022/05/06 08:40:20;;;;;;;4.45;3.28;;;;;;;;;;5110094;28;20388;-48
2022/05/06 08:42:46;;;;;;;3.95;2.58;;;;;;;;;;5113183;28;20047;-45
2022/05/06 08:50:52;;;;;;;3.60;1.83;;;;;;;;;;5113503;28;20042;-45
2022/05/06 08:53:18;;;;;;;3.88;2.78;;;;;;;;;;5112408;28;20050;-44
2022/05/06 08:55:44;;;;;;;4.57;2.63;;;;;;;;;;5109674;28;20047;-49
2022/05/06 08:58:09;;;;;;;5.10;2.92;;;;;;;;;;5110070;28;20055;-44
2022/05/06 09:00:34;;;;;;;14.73;2.95;;;;;;;;;;5110068;28;20108;-44
2022/05/06 09:03:00;;;;;;;13.25;2.88;;;;;;;;;;5110223;28;20051;-45
2022/05/06 09:05:25;;;;;;;4.93;1.23;;;;;;;;;;5109229;28;20054;-47
2022/05/06 09:07:57;;;;;;;5.93;2.92;;;;;;;;;;5111176;28;20094;-43
2022/05/06 09:10:22;;;;;;;3.67;2.67;;;;;;;;;;5112219;28;20058;-42
2022/05/06 09:12:51;;;;;;;5.25;3.42;;;;;;;;;;5106841;28;20043;-43
2022/05/06 09:18:01;;;;;;;2.58;1.90;;;;;;;;;;5108052;28;20677;-48
2022/05/06 09:20:27;;;;;;;7.57;3.13;;;;;;;;;;5109433;28;20072;-49
2022/05/06 09:22:54;;;;;;;7.65;2.10;;;;;;;;;;5110732;28;20299;-46
2022/05/06 09:25:34;;;;;;;15.38;3.88;;;;;;;;;;5109375;28;20073;-45
2022/05/06 09:27:59;;;;;;;4.47;2.92;;;;;;;;;;5115075;28;20052;-44
2022/05/06 09:30:25;;;;;;;2.63;1.60;;;;;;;;;;5111296;28;20074;-43
2022/05/06 09:32:50;;;;;;;4.97;2.63;;;;;;;;;;5112194;28;20035;-45
2022/05/06 09:35:15;;;;;;;4.00;2.90;;;;;;;;;;5106011;28;20264;-44
2022/05/06 09:37:44;;;;;;;3.15;1.90;;;;;;;;;;5114605;28;20047;-49
2022/05/06 09:40:11;;;;;;;19.02;5.35;;;;;;;;;;5114271;28;20043;-46
2022/05/06 09:42:40;;;;;;;4.10;2.65;;;;;;;;;;5113000;28;20048;-49
2022/05/06 09:45:06;;;;;;;8.32;3.53;;;;;;;;;;5112546;28;20412;-48
2022/05/06 09:47:35;;;;;;;5.05;2.45;;;;;;;;;;5115264;28;20059;-47
2022/05/06 09:50:01;;;;;;;8.75;3.67;;;;;;;;;;5113326;28;20225;-45
2022/05/06 09:52:26;;;;;;;9.30;2.08;;;;;;;;;;5114020;28;20048;-44
2022/05/06 09:54:52;;;;;;;4.88;1.65;;;;;;;;;;5116024;28;20032;-45
2022/05/06 09:57:20;;;;;;;5.97;2.63;;;;;;;;;;5108712;28;20116;-46
2022/05/06 09:59:46;;;;;;;5.00;3.13;;;;;;;;;;5117710;28;20040;-46
2022/05/06 10:02:13;;;;;;;3.55;2.60;;;;;;;;;;5110443;28;20062;-45
2022/05/06 10:04:38;;;;;;;4.57;1.83;;;;;;;;;;5108701;28;20058;-43
2022/05/06 10:07:10;;;;;;;5.13;3.05;;;;;;;;;;5108650;28;20422;-48
2022/05/06 10:09:55;;;;;;;5.88;3.35;;;;;;;;;;5109763;28;20055;-45
2022/05/06 10:12:21;;;;;;;8.38;2.38;;;;;;;;;;5111952;28;20042;-44
2022/05/06 10:14:47;;;;;;;7.10;4.25;;;;;;;;;;5109889;28;20035;-52
2022/05/06 10:17:32;;;;;;;3.42;1.88;;;;;;;;;;5111544;28;20103;-49
2022/05/06 10:19:58;;;;;;;12.80;2.53;;;;;;;;;;5112288;28;20051;-44
2022/05/06 10:22:43;;;;;;;8.32;3.28;;;;;;;;;;5111223;28;20496;-45
2022/05/06 10:25:08;;;;;;;3.78;1.85;;;;;;;;;;5109241;28;20495;-47
2022/05/06 10:33:17;;;;;;;8.25;3.00;;;;;;;;;;5109770;28;20124;-46
2022/05/06 10:35:46;;;;;;;6.22;3.17;;;;;;;;;;5111566;28;20683;-48
2022/05/06 10:38:17;;;;;;;9.73;3.60;;;;;;;;;;5106474;28;20553;-50
2022/05/06 10:41:05;;;;;;;13.50;3.58;;;;;;;;;;5109603;28;20043;-52
2022/05/06 10:43:48;;;;;;;5.05;2.78;;;;;;;;;;5112271;28;20066;-51
2022/05/06 10:46:29;;;;;;;6.78;2.55;;;;;;;;;;5107547;28;20058;-51
2022/05/06 10:48:55;;;;;;;2.28;1.45;;;;;;;;;;5109978;28;20048;-51
2022/05/06 10:51:24;;;;;;;3.47;1.73;;;;;;;;;;5112039;28;20078;-52
2022/05/06 10:53:50;;;;;;;1.95;0.95;;;;;;;;;;5111790;28;20047;-54
2022/05/06 10:56:16;;;;;;;4.95;2.90;;;;;;;;;;5107965;28;20039;-54
2022/05/06 10:58:42;;;;;;;5.72;3.35;;;;;;;;;;5109613;28;20079;-55
2022/05/06 11:01:15;;;;;;;8.02;3.75;;;;;;;;;;5110186;28;20516;-55
2022/05/06 11:03:50;;;;;;;14.77;3.85;;;;;;;;;;5108822;28;20126;-56
2022/05/06 11:06:19;;;;;;;4.32;3.05;;;;;;;;;;5114757;28;20031;-51
2022/05/06 11:08:45;;;;;;;4.22;2.67;;;;;;;;;;5109740;28;20039;-54
2022/05/06 11:11:14;;;;;;;4.20;2.42;;;;;;;;;;5107120;28;20070;-56
2022/05/06 11:13:40;;;;;;;10.02;3.63;;;;;;;;;;5111192;28;20139;-57
2022/05/06 11:16:06;;;;;;;3.67;2.88;;;;;;;;;;5109574;28;20174;-54
2022/05/06 11:18:40;;;;;;;6.28;3.75;;;;;;;;;;5109555;28;20051;-53
2022/05/06 11:21:18;;;;;;;10.93;3.55;;;;;;;;;;5105309;28;20046;-53
2022/05/06 11:23:43;;;;;;;4.47;2.47;;;;;;;;;;5108002;28;20495;-54
2022/05/06 11:26:09;;;;;;;7.30;3.53;;;;;;;;;;5111555;28;20043;-54
2022/05/06 11:28:35;;;;;;;3.85;2.00;;;;;;;;;;5111653;28;20095;-54
2022/05/06 11:31:01;;;;;;;5.70;3.20;;;;;;;;;;5109530;28;20127;-54
2022/05/06 11:33:31;;;;;;;3.97;2.38;;;;;;;;;;5108262;28;20139;-55
2022/05/06 11:36:05;;;;;;;4.82;2.58;;;;;;;;;;5111197;28;20043;-56
2022/05/06 11:38:35;;;;;;;2.42;1.67;;;;;;;;;;5113578;28;20050;-56
2022/05/06 11:41:07;;;;;;;6.18;3.67;;;;;;;;;;5113106;28;20059;-54
2022/05/06 11:43:33;;;;;;;5.10;2.75;;;;;;;;;;5110644;28;20100;-53
2022/05/06 11:48:46;;;;;;;6.55;2.80;;;;;;;;;;5111301;28;20078;-55
2022/05/06 11:51:14;;;;;;;5.45;2.72;;;;;;;;;;5113096;28;20048;-54
2022/05/06 11:53:40;;;;;;;6.82;2.75;;;;;;;;;;5103904;28;20111;-54
2022/05/06 11:56:06;;;;;;;7.78;3.17;;;;;;;;;;5111480;28;20039;-54
2022/05/06 11:58:34;;;;;;;7.40;5.00;;;;;;;;;;5110128;28;20127;-54
2022/05/06 12:00:59;;;;;;;6.15;3.55;;;;;;;;;;5111102;28;20085;-55
2022/05/06 12:03:26;;;;;;;4.88;2.70;;;;;;;;;;5112076;28;20074;-54
2022/05/06 12:06:04;;;;;;;4.47;2.60;;;;;;;;;;5110407;28;20104;-55
2022/05/06 12:08:31;;;;;;;5.80;2.80;;;;;;;;;;5112051;28;20077;-55
2022/05/06 12:11:00;;;;;;;3.95;1.98;;;;;;;;;;5110944;28;20508;-54
2022/05/06 12:13:32;;;;;;;3.58;2.45;;;;;;;;;;5112278;28;20062;-55
2022/05/06 12:16:03;;;;;;;7.53;3.13;;;;;;;;;;5106232;28;20096;-57
2022/05/06 12:18:29;;;;;;;3.72;2.40;;;;;;;;;;5107561;28;20047;-51
2022/05/06 12:20:54;;;;;;;9.27;2.95;;;;;;;;;;5112845;28;20051;-55
2022/05/06 12:23:30;;;;;;;4.30;2.90;;;;;;;;;;5110565;28;20038;-53
2022/05/06 12:25:56;;;;;;;3.80;2.38;;;;;;;;;;5107077;28;20150;-54
2022/05/06 12:28:22;;;;;;;6.13;2.92;;;;;;;;;;5112911;28;20035;-55
2022/05/06 12:30:54;;;;;;;3.30;2.28;;;;;;;;;;5111300;28;20634;-55
2022/05/06 12:33:19;;;;;;;6.55;3.28;;;;;;;;;;5111597;28;20039;-56
2022/05/06 12:35:57;;;;;;;5.78;2.45;;;;;;;;;;5112753;28;20092;-56
2022/05/06 12:38:23;;;;;;;3.88;2.42;;;;;;;;;;5108001;28;20070;-52
2022/05/06 12:40:50;;;;;;;3.08;2.45;;;;;;;;;;5111174;28;20093;-54
2022/05/06 12:43:15;;;;;;;5.25;2.88;;;;;;;;;;5112215;28;20043;-56
2022/05/06 12:45:53;;;;;;;6.30;2.47;;;;;;;;;;5109562;28;20089;-55
2022/05/06 12:51:06;;;;;;;6.65;2.85;;;;;;;;;;5109670;28;20498;-55
2022/05/06 12:53:33;;;;;;;4.43;2.95;;;;;;;;;;5108003;28;20039;-56
2022/05/06 12:55:58;;;;;;;4.43;3.00;;;;;;;;;;5109528;28;20028;-53
2022/05/06 12:58:27;;;;;;;5.93;3.63;;;;;;;;;;5113733;28;20130;-54
2022/05/06 13:00:53;;;;;;;4.47;1.98;;;;;;;;;;5110730;28;20062;-54
2022/05/06 13:03:18;;;;;;;4.10;3.28;;;;;;;;;;5108408;28;20047;-55
2022/05/06 13:05:44;;;;;;;7.25;3.78;;;;;;;;;;5111327;28;20130;-55
2022/05/06 13:08:09;;;;;;;8.02;3.47;;;;;;;;;;5105785;28;20055;-53
2022/05/06 13:10:35;;;;;;;2.72;2.22;;;;;;;;;;5106233;28;20054;-54
2022/05/06 13:13:02;;;;;;;11.98;3.17;;;;;;;;;;5112252;28;20127;-53
2022/05/06 13:15:28;;;;;;;7.18;2.95;;;;;;;;;;5112176;28;20047;-55
2022/05/06 13:17:53;;;;;;;3.83;2.65;;;;;;;;;;5112795;28;20559;-55
2022/05/06 13:20:18;;;;;;;3.33;2.40;;;;;;;;;;5115718;28;20058;-56
2022/05/06 13:22:44;;;;;;;8.32;2.45;;;;;;;;;;5109379;28;20540;-55
2022/05/06 13:25:09;;;;;;;2.95;2.25;;;;;;;;;;5113957;28;20040;-53
2022/05/06 13:27:34;;;;;;;6.40;3.17;;;;;;;;;;5108490;28;20044;-55
2022/05/06 13:30:00;;;;;;;8.30;5.55;;;;;;;;;;5109012;28;20048;-55
2022/05/06 13:32:25;;;;;;;4.35;2.22;;;;;;;;;;5107817;28;20048;-56
2022/05/06 13:34:50;;;;;;;4.63;3.53;;;;;;;;;;5111850;28;20103;-55
2022/05/06 13:37:15;;;;;;;10.07;4.80;;;;;;;;;;5117023;28;20036;-56
2022/05/06 13:39:41;;;;;;;13.13;3.97;;;;;;;;;;5116787;28;20400;-55
2022/05/06 13:42:06;;;;;;;7.68;3.63;;;;;;;;;;5109977;28;20489;-58
2022/05/06 13:44:31;;;;;;;5.35;2.83;;;;;;;;;;5114695;28;20128;-54
2022/05/06 13:46:57;;;;;;;5.45;3.63;;;;;;;;;;5115646;28;20051;-53
2022/05/06 13:49:22;;;;;;;16.67;3.25;;;;;;;;;;5107890;28;20460;-55
2022/05/06 13:51:47;;;;;;;3.90;2.45;;;;;;;;;;5107871;28;20491;-57
2022/05/06 13:54:13;;;;;;;9.55;4.53;;;;;;;;;;5111250;28;20118;-56
2022/05/06 13:59:22;;;;;;;2.17;1.77;;;;;;;;;;5108047;28;20042;-57
2022/05/06 14:01:49;;;;;;;4.20;2.40;;;;;;;;;;5111322;28;20044;-57
2022/05/06 14:04:14;;;;;;;4.22;2.47;;;;;;;;;;5109994;28;20051;-54
2022/05/06 14:06:40;;;;;;;23.65;3.22;;;;;;;;;;5116840;28;20047;-56
2022/05/06 14:09:06;;;;;;;12.40;3.85;;;;;;;;;;5109783;28;20044;-55
2022/05/06 14:11:31;;;;;;;8.25;2.72;;;;;;;;;;5111216;28;20043;-56
2022/05/06 14:13:57;;;;;;;3.35;2.30;;;;;;;;;;5112692;28;20568;-57
2022/05/06 14:16:25;;;;;;;4.07;2.47;;;;;;;;;;5095945;28;20043;-57
2022/05/06 14:18:50;;;;;;;3.20;2.72;;;;;;;;;;5114981;28;20432;-56
2022/05/06 14:21:16;;;;;;;8.52;2.85;;;;;;;;;;5111267;28;20050;-56
2022/05/06 14:23:41;;;;;;;4.57;3.00;;;;;;;;;;5111319;28;20050;-57
2022/05/06 14:26:06;;;;;;;2.65;1.80;;;;;;;;;;5113224;28;20043;-57
2022/05/06 14:28:32;;;;;;;11.77;2.53;;;;;;;;;;5112095;28;20051;-57
2022/05/06 14:30:57;;;;;;;12.05;3.00;;;;;;;;;;5113626;28;20038;-57
2022/05/06 14:33:22;;;;;;;4.15;3.63;;;;;;;;;;5110710;28;20039;-55
2022/05/06 14:35:48;;;;;;;4.53;2.38;;;;;;;;;;5113318;28;20055;-56
2022/05/06 14:38:13;;;;;;;14.90;3.35;;;;;;;;;;5115437;28;20138;-50
2022/05/06 14:40:39;;;;;;;8.50;2.28;;;;;;;;;;5108613;28;20043;-54
2022/05/06 14:43:04;;;;;;;5.20;2.90;;;;;;;;;;5110367;28;20176;-55
2022/05/06 14:45:29;;;;;;;6.28;3.00;;;;;;;;;;5111342;28;20579;-55
2022/05/06 14:47:55;;;;;;;5.32;4.35;;;;;;;;;;5111634;28;20096;-53
2022/05/06 14:50:20;;;;;;;3.72;3.08;;;;;;;;;;5110192;28;20043;-55
2022/05/06 14:52:46;;;;;;;4.07;2.97;;;;;;;;;;5115726;28;20067;-56
2022/05/06 14:55:11;;;;;;;4.25;2.28;;;;;;;;;;5111027;28;20132;-56
2022/05/06 14:57:37;;;;;;;9.35;5.00;;;;;;;;;;5113192;28;20055;-50
2022/05/06 15:00:07;;;;;;;4.82;2.47;;;;;;;;;;5112788;28;20055;-54
2022/05/06 15:02:32;;;;;;;6.47;3.40;;;;;;;;;;5108598;28;20553;-55
2022/05/06 15:04:58;;;;;;;9.55;4.20;;;;;;;;;;5112339;28;20078;-54
2022/05/06 15:07:23;;;;;;;2.30;2.10;;;;;;;;;;5112564;28;20089;-53
2022/05/06 15:09:48;;;;;;;6.75;3.42;;;;;;;;;;5116870;28;20051;-55
2022/05/06 15:12:15;;;;;;;3.88;2.35;;;;;;;;;;5112695;28;20031;-55
2022/05/06 15:14:43;;;;;;;5.22;3.10;;;;;;;;;;5116851;28;20077;-54
2022/05/06 15:17:14;;;;;;;7.25;2.35;;;;;;;;;;5110989;28;20063;-56
2022/05/06 15:19:39;;;;;;;6.25;2.42;;;;;;;;;;5113436;28;20495;-53
2022/05/06 15:22:06;;;;;;;4.68;2.65;;;;;;;;;;5110885;28;20061;-55
2022/05/06 15:24:31;;;;;;;5.65;2.65;;;;;;;;;;5112677;28;20138;-52
2022/05/06 15:26:57;;;;;;;9.05;2.53;;;;;;;;;;5108033;28;20131;-56
2022/05/06 15:29:22;;;;;;;2.70;2.08;;;;;;;;;;5111420;28;20227;-52
2022/05/06 15:31:47;;;;;;;4.90;2.30;;;;;;;;;;5113038;28;20058;-56
2022/05/06 15:34:13;;;;;;;7.45;2.67;;;;;;;;;;5108330;28;20542;-54
2022/05/06 15:36:38;;;;;;;4.03;2.38;;;;;;;;;;5110806;28;20035;-54
2022/05/06 15:39:03;;;;;;;1.40;1.00;;;;;;;;;;5110685;28;20046;-56
2022/05/06 15:41:29;;;;;;;2.30;2.10;;;;;;;;;;5108881;28;20051;-54